Time;durP1;ratioP1;P1;durP2;ratioP2;P2;SDS_P1;SDS_P2;PMS_P1;PMS_P2;Temp;Humidity;BMP_temperature;BMP_pressure;BME280_temperature;BME280_humidity;BME280_pressure;Samples;Min_cycle;Max_cycle;Signal;HPM_P1;HPM_P2
2023/12/02 00:00:26;;;;;;;;;;;21.40;38.60;;;;;;4975254;28;19926;-53
2023/12/02 00:02:53;;;;;;;;;;;21.40;38.70;;;;;;4958119;28;19976;-51
2023/12/02 00:05:20;;;;;;;;;;;21.40;38.70;;;;;;4975537;28;19927;-52
2023/12/02 00:07:47;;;;;;;;;;;21.40;38.70;;;;;;4975210;28;19930;-49
2023/12/02 00:10:14;;;;;;;;;;;21.40;38.60;;;;;;4975239;28;20427;-52
2023/12/02 00:12:41;;;;;;;;;;;21.40;38.60;;;;;;4975449;28;19930;-53
2023/12/02 00:15:08;;;;;;;;;;;21.40;38.60;;;;;;4975142;28;19973;-49
2023/12/02 00:17:35;;;;;;;;;;;21.40;38.60;;;;;;4974758;28;19957;-53
2023/12/02 00:20:02;;;;;;;;;;;21.40;38.60;;;;;;4974799;28;19926;-49
2023/12/02 00:22:29;;;;;;;;;;;21.40;38.60;;;;;;4974963;28;19926;-48
2023/12/02 00:24:56;;;;;;;;;;;21.40;38.60;;;;;;4975297;28;19926;-48
2023/12/02 00:27:23;;;;;;;;;;;21.40;38.60;;;;;;4974470;28;19926;-48
2023/12/02 00:29:51;;;;;;;;;;;21.40;38.60;;;;;;4974725;28;19972;-55
2023/12/02 00:32:18;;;;;;;;;;;21.40;38.60;;;;;;4974935;28;19949;-47
2023/12/02 00:34:56;;;;;;;;;;;21.40;38.60;;;;;;4974998;28;20296;-49
2023/12/02 00:37:24;;;;;;;;;;;21.40;38.60;;;;;;4989542;28;19926;-49
2023/12/02 00:39:51;;;;;;;;;;;21.40;38.60;;;;;;4994209;28;19926;-51
2023/12/02 00:42:18;;;;;;;;;;;21.40;38.70;;;;;;4993898;28;19926;-49
2023/12/02 00:44:45;;;;;;;;;;;21.40;38.70;;;;;;4993988;28;20364;-50
2023/12/02 00:47:12;;;;;;;;;;;21.40;38.70;;;;;;4993150;28;20348;-49
2023/12/02 00:49:40;;;;;;;;;;;21.40;38.70;;;;;;4994046;28;20363;-47
2023/12/02 00:52:07;;;;;;;;;;;21.40;38.70;;;;;;4994046;28;19980;-47
2023/12/02 00:54:36;;;;;;;;;;;21.40;38.70;;;;;;4975098;28;19981;-47
2023/12/02 00:57:03;;;;;;;;;;;21.40;38.70;;;;;;4974404;28;19926;-48
2023/12/02 00:59:30;;;;;;;;;;;21.40;38.70;;;;;;4974771;28;19933;-47
2023/12/02 01:01:57;;;;;;;;;;;21.40;38.70;;;;;;4974429;28;19930;-47
2023/12/02 01:04:25;;;;;;;;;;;21.40;38.70;;;;;;4974497;28;19930;-48
2023/12/02 01:06:52;;;;;;;;;;;21.40;38.70;;;;;;4973527;28;19930;-47
2023/12/02 01:09:19;;;;;;;;;;;21.40;38.70;;;;;;4974465;28;20392;-48
2023/12/02 01:11:46;;;;;;;;;;;21.40;38.70;;;;;;4974534;28;20349;-49
2023/12/02 01:14:14;;;;;;;;;;;21.40;38.70;;;;;;4974737;28;19980;-47
2023/12/02 01:16:41;;;;;;;;;;;21.40;38.80;;;;;;4974519;28;19926;-47
2023/12/02 01:19:08;;;;;;;;;;;21.40;38.70;;;;;;4974519;28;20343;-47
2023/12/02 01:21:35;;;;;;;;;;;21.40;38.70;;;;;;4974139;28;19926;-48
2023/12/02 01:24:02;;;;;;;;;;;21.40;38.70;;;;;;4974480;28;20021;-53
2023/12/02 01:26:29;;;;;;;;;;;21.40;38.80;;;;;;4974416;28;20291;-53
2023/12/02 01:28:56;;;;;;;;;;;21.30;38.70;;;;;;4957072;28;19926;-51
2023/12/02 01:31:23;;;;;;;;;;;21.30;38.70;;;;;;4976516;28;19926;-53
2023/12/02 01:33:50;;;;;;;;;;;21.30;38.80;;;;;;4977952;28;20410;-53
2023/12/02 01:36:17;;;;;;;;;;;21.30;38.80;;;;;;4978266;28;20018;-49
2023/12/02 01:38:44;;;;;;;;;;;21.30;38.80;;;;;;4978244;28;19933;-52
2023/12/02 01:41:12;;;;;;;;;;;21.30;38.80;;;;;;4977692;28;19981;-52
2023/12/02 01:43:39;;;;;;;;;;;21.30;38.80;;;;;;4977730;28;19926;-49
2023/12/02 01:46:06;;;;;;;;;;;21.30;38.80;;;;;;4977822;28;20000;-49
2023/12/02 01:48:33;;;;;;;;;;;21.40;38.80;;;;;;4977656;28;19926;-54
2023/12/02 01:51:01;;;;;;;;;;;21.40;38.80;;;;;;4977728;28;19980;-50
2023/12/02 01:53:28;;;;;;;;;;;21.40;38.80;;;;;;4977547;28;19937;-47
2023/12/02 01:55:55;;;;;;;;;;;21.40;39.30;;;;;;4977246;28;20388;-52
2023/12/02 01:58:22;;;;;;;;;;;21.40;38.70;;;;;;4977568;28;19972;-53
2023/12/02 02:00:49;;;;;;;;;;;21.40;38.70;;;;;;4977746;28;19988;-47
2023/12/02 02:03:16;;;;;;;;;;;21.40;38.70;;;;;;4977661;28;20372;-54
2023/12/02 02:05:44;;;;;;;;;;;21.40;38.70;;;;;;4977880;28;20376;-52
2023/12/02 02:08:11;;;;;;;;;;;21.40;38.80;;;;;;4977555;28;20350;-48
2023/12/02 02:10:38;;;;;;;;;;;21.30;38.70;;;;;;4977606;28;19937;-53
2023/12/02 02:13:06;;;;;;;;;;;21.30;39.30;;;;;;4984791;28;20343;-53
2023/12/02 02:15:33;;;;;;;;;;;21.30;38.70;;;;;;4996863;28;19926;-53
2023/12/02 02:18:00;;;;;;;;;;;21.30;38.70;;;;;;4996768;28;19925;-50
2023/12/02 02:20:27;;;;;;;;;;;21.30;38.80;;;;;;4996918;28;19926;-51
2023/12/02 02:22:54;;;;;;;;;;;21.30;38.80;;;;;;4996819;28;19988;-49
2023/12/02 02:25:21;;;;;;;;;;;21.30;38.80;;;;;;4996477;28;19961;-48
2023/12/02 02:27:48;;;;;;;;;;;21.30;38.80;;;;;;4996388;28;19929;-53
2023/12/02 02:30:15;;;;;;;;;;;21.30;38.80;;;;;;4996876;28;19926;-49
2023/12/02 02:32:42;;;;;;;;;;;21.30;38.90;;;;;;4996324;28;20371;-53
2023/12/02 02:35:09;;;;;;;;;;;21.30;38.80;;;;;;4996623;28;19925;-49
2023/12/02 02:37:36;;;;;;;;;;;21.30;38.80;;;;;;4996403;28;20016;-51
2023/12/02 02:40:05;;;;;;;;;;;21.30;38.80;;;;;;4996028;28;19980;-52
2023/12/02 02:42:32;;;;;;;;;;;21.30;38.80;;;;;;4995174;28;19926;-47
2023/12/02 02:44:59;;;;;;;;;;;21.30;38.80;;;;;;4996141;28;19980;-47
2023/12/02 02:47:27;;;;;;;;;;;21.30;38.80;;;;;;4996062;28;19969;-50
2023/12/02 02:49:54;;;;;;;;;;;21.30;38.80;;;;;;4989623;28;19989;-48
2023/12/02 02:52:21;;;;;;;;;;;21.30;38.80;;;;;;4976527;28;19973;-48
2023/12/02 02:54:48;;;;;;;;;;;21.30;38.80;;;;;;4976583;28;19972;-51
2023/12/02 02:57:19;;;;;;;;;;;21.30;39.40;;;;;;4976326;28;19980;-49
2023/12/02 02:59:46;;;;;;;;;;;21.30;38.80;;;;;;4976688;28;19926;-49
2023/12/02 03:02:13;;;;;;;;;;;21.30;38.80;;;;;;4976116;28;20404;-49
2023/12/02 03:04:40;;;;;;;;;;;21.30;38.80;;;;;;4976372;28;19981;-52
2023/12/02 03:07:07;;;;;;;;;;;21.30;38.80;;;;;;4976501;28;19957;-51
2023/12/02 03:09:34;;;;;;;;;;;21.20;38.80;;;;;;4975995;28;20234;-51
2023/12/02 03:12:03;;;;;;;;;;;21.20;38.80;;;;;;4976461;28;19926;-52
2023/12/02 03:14:30;;;;;;;;;;;21.20;38.90;;;;;;4976531;28;19926;-51
2023/12/02 03:16:57;;;;;;;;;;;21.20;38.90;;;;;;4975936;28;19926;-53
2023/12/02 03:19:24;;;;;;;;;;;21.20;38.90;;;;;;4976199;28;20379;-52
2023/12/02 03:21:51;;;;;;;;;;;21.20;38.90;;;;;;4975760;28;19926;-53
2023/12/02 03:24:18;;;;;;;;;;;21.20;38.90;;;;;;4976102;28;20339;-51
2023/12/02 03:26:45;;;;;;;;;;;21.20;38.90;;;;;;4976543;28;19997;-52
2023/12/02 03:29:12;;;;;;;;;;;21.20;38.90;;;;;;4975847;28;19961;-47
2023/12/02 03:31:39;;;;;;;;;;;21.20;38.80;;;;;;4976262;28;19930;-53
2023/12/02 03:34:06;;;;;;;;;;;21.30;38.80;;;;;;4975783;28;19933;-47
2023/12/02 03:36:33;;;;;;;;;;;21.20;38.80;;;;;;4976030;28;20260;-53
2023/12/02 03:39:00;;;;;;;;;;;21.30;38.80;;;;;;4975933;28;19926;-47
2023/12/02 03:41:28;;;;;;;;;;;21.30;39.00;;;;;;4975630;28;19949;-53
2023/12/02 03:43:55;;;;;;;;;;;21.30;38.80;;;;;;4975840;28;19961;-53
2023/12/02 03:46:28;;;;;;;;;;;21.20;38.80;;;;;;4976021;28;19937;-48
2023/12/02 03:48:55;;;;;;;;;;;21.30;38.80;;;;;;4975430;28;20380;-53
2023/12/02 03:51:23;;;;;;;;;;;21.20;38.80;;;;;;4975765;28;19973;-51
2023/12/02 03:53:50;;;;;;;;;;;21.20;38.80;;;;;;4975072;28;19926;-51
2023/12/02 03:56:18;;;;;;;;;;;21.20;38.80;;;;;;4975713;28;19960;-46
2023/12/02 03:58:45;;;;;;;;;;;21.20;38.80;;;;;;4975318;28;20021;-54
2023/12/02 04:01:13;;;;;;;;;;;21.20;38.80;;;;;;4975552;28;20276;-53
2023/12/02 04:03:40;;;;;;;;;;;21.20;38.80;;;;;;4975543;28;20261;-47
2023/12/02 04:06:08;;;;;;;;;;;21.20;38.80;;;;;;4975201;28;19929;-50
2023/12/02 04:08:36;;;;;;;;;;;21.20;38.80;;;;;;4975048;28;19926;-51
2023/12/02 04:11:03;;;;;;;;;;;21.20;38.80;;;;;;4975165;28;19984;-52
2023/12/02 04:13:30;;;;;;;;;;;21.20;38.80;;;;;;4975066;28;19958;-47
2023/12/02 04:15:57;;;;;;;;;;;21.20;38.80;;;;;;4975303;28;20336;-54
2023/12/02 04:18:25;;;;;;;;;;;21.20;38.90;;;;;;4975010;28;19930;-52
2023/12/02 04:20:52;;;;;;;;;;;21.20;38.80;;;;;;4975275;28;19926;-50
2023/12/02 04:23:19;;;;;;;;;;;21.20;38.80;;;;;;4974960;28;19929;-49
2023/12/02 04:25:46;;;;;;;;;;;21.20;38.90;;;;;;4975233;28;20350;-48
2023/12/02 04:28:13;;;;;;;;;;;21.20;38.90;;;;;;4975212;28;19933;-47
2023/12/02 04:30:40;;;;;;;;;;;21.10;38.90;;;;;;4975130;28;19965;-47
2023/12/02 04:33:08;;;;;;;;;;;21.20;38.90;;;;;;4975099;28;20017;-51
2023/12/02 04:35:36;;;;;;;;;;;21.20;38.90;;;;;;4974884;28;19925;-54
2023/12/02 04:38:06;;;;;;;;;;;21.20;38.90;;;;;;4974795;28;20316;-49
2023/12/02 04:40:33;;;;;;;;;;;21.20;38.70;;;;;;4974796;28;19930;-52
2023/12/02 04:43:00;;;;;;;;;;;21.20;38.60;;;;;;4975051;28;19929;-49
2023/12/02 04:45:27;;;;;;;;;;;21.20;38.40;;;;;;4975070;28;19953;-47
2023/12/02 04:47:58;;;;;;;;;;;21.20;38.40;;;;;;4975075;28;19961;-48
2023/12/02 04:50:26;;;;;;;;;;;21.20;38.40;;;;;;4974545;28;19926;-49
2023/12/02 04:52:53;;;;;;;;;;;21.20;38.40;;;;;;4974829;28;20008;-52
2023/12/02 04:55:20;;;;;;;;;;;21.20;38.40;;;;;;4974767;28;19930;-51
2023/12/02 04:57:47;;;;;;;;;;;21.20;38.50;;;;;;4974467;28;19977;-54
2023/12/02 05:00:15;;;;;;;;;;;21.20;38.60;;;;;;4974633;28;19972;-52
2023/12/02 05:02:42;;;;;;;;;;;21.20;38.60;;;;;;4974613;28;19981;-53
2023/12/02 05:05:10;;;;;;;;;;;21.20;38.60;;;;;;4975171;28;19926;-52
2023/12/02 05:07:37;;;;;;;;;;;21.20;38.60;;;;;;4978731;28;20265;-52
2023/12/02 05:10:04;;;;;;;;;;;21.20;38.60;;;;;;4993420;28;20038;-52
2023/12/02 05:12:31;;;;;;;;;;;21.20;38.50;;;;;;4978709;28;19926;-53
2023/12/02 05:14:58;;;;;;;;;;;21.20;38.50;;;;;;4978727;28;19926;-47
2023/12/02 05:17:27;;;;;;;;;;;21.20;38.50;;;;;;4978466;28;19970;-52
2023/12/02 05:19:55;;;;;;;;;;;21.20;38.50;;;;;;4978228;28;19933;-53
2023/12/02 05:22:22;;;;;;;;;;;21.20;38.40;;;;;;4978152;28;19980;-48
2023/12/02 05:24:49;;;;;;;;;;;21.20;38.50;;;;;;4978464;28;19970;-47
2023/12/02 05:27:16;;;;;;;;;;;21.20;38.40;;;;;;4978512;28;19989;-49
2023/12/02 05:29:43;;;;;;;;;;;21.20;38.50;;;;;;4978313;28;19927;-54
2023/12/02 05:32:11;;;;;;;;;;;21.20;38.40;;;;;;4977897;28;19926;-50
2023/12/02 05:34:38;;;;;;;;;;;21.30;38.40;;;;;;4978142;28;19926;-52
2023/12/02 05:37:05;;;;;;;;;;;21.30;38.40;;;;;;4977835;28;19926;-55
2023/12/02 05:39:33;;;;;;;;;;;21.30;38.40;;;;;;4978190;28;19949;-48
2023/12/02 05:42:00;;;;;;;;;;;21.30;38.40;;;;;;4978017;28;20280;-50
2023/12/02 05:44:28;;;;;;;;;;;21.30;38.40;;;;;;4978153;28;19949;-52
2023/12/02 05:46:54;;;;;;;;;;;21.30;38.40;;;;;;4978084;28;19933;-53
2023/12/02 05:49:22;;;;;;;;;;;21.30;38.40;;;;;;4978049;28;19926;-47
2023/12/02 05:51:49;;;;;;;;;;;21.30;38.30;;;;;;4977557;28;19926;-54
2023/12/02 05:54:16;;;;;;;;;;;21.30;38.30;;;;;;4977733;28;19926;-53
2023/12/02 05:56:43;;;;;;;;;;;21.30;38.30;;;;;;4977724;28;20020;-54
2023/12/02 05:59:10;;;;;;;;;;;21.30;38.30;;;;;;4977809;28;19973;-48
2023/12/02 06:01:37;;;;;;;;;;;21.40;38.30;;;;;;4977775;28;19968;-52
2023/12/02 06:04:04;;;;;;;;;;;21.30;38.20;;;;;;4977412;28;19926;-46
2023/12/02 06:06:32;;;;;;;;;;;21.40;38.30;;;;;;4969128;28;19927;-47
2023/12/02 06:08:59;;;;;;;;;;;21.40;38.30;;;;;;4970922;28;19949;-48
2023/12/02 06:11:26;;;;;;;;;;;21.40;38.80;;;;;;4974714;28;19961;-53
2023/12/02 06:13:53;;;;;;;;;;;21.40;38.20;;;;;;4977138;28;20051;-51
2023/12/02 06:16:20;;;;;;;;;;;21.40;38.20;;;;;;4976880;28;20403;-50
2023/12/02 06:18:47;;;;;;;;;;;21.40;38.20;;;;;;4977120;28;20454;-52
2023/12/02 06:21:14;;;;;;;;;;;21.40;38.20;;;;;;4976916;28;19926;-51
2023/12/02 06:23:41;;;;;;;;;;;21.40;38.20;;;;;;4977054;28;19937;-51
2023/12/02 06:26:09;;;;;;;;;;;21.40;38.20;;;;;;4977094;28;20024;-47
2023/12/02 06:28:36;;;;;;;;;;;21.40;38.20;;;;;;4977081;28;20292;-51
2023/12/02 06:31:03;;;;;;;;;;;21.50;38.20;;;;;;4976714;28;19933;-51
2023/12/02 06:33:30;;;;;;;;;;;21.50;38.20;;;;;;4976790;28;19957;-53
2023/12/02 06:35:57;;;;;;;;;;;21.50;38.00;;;;;;4976436;28;19933;-51
2023/12/02 06:38:24;;;;;;;;;;;21.50;38.00;;;;;;4976619;28;19930;-48
2023/12/02 06:40:52;;;;;;;;;;;21.50;37.90;;;;;;4976566;28;20368;-51
2023/12/02 06:43:19;;;;;;;;;;;21.50;37.80;;;;;;4976501;28;20455;-47
2023/12/02 06:45:46;;;;;;;;;;;21.60;37.80;;;;;;4976798;28;19930;-52
2023/12/02 06:48:13;;;;;;;;;;;21.50;37.80;;;;;;4976529;28;19930;-53
2023/12/02 06:50:41;;;;;;;;;;;21.60;37.80;;;;;;4976356;28;19969;-53
2023/12/02 06:53:08;;;;;;;;;;;21.50;37.70;;;;;;4976425;28;19926;-54
2023/12/02 06:55:36;;;;;;;;;;;21.50;37.70;;;;;;4976770;28;19973;-53
2023/12/02 06:58:03;;;;;;;;;;;21.50;37.70;;;;;;4976436;28;19926;-52
2023/12/02 07:00:30;;;;;;;;;;;21.50;37.70;;;;;;4976250;28;19969;-49
2023/12/02 07:02:57;;;;;;;;;;;21.50;37.70;;;;;;4975533;28;19932;-50
2023/12/02 07:05:25;;;;;;;;;;;21.60;37.70;;;;;;4976243;28;19926;-50
2023/12/02 07:07:52;;;;;;;;;;;21.60;37.70;;;;;;4975819;28;19965;-51
2023/12/02 07:10:19;;;;;;;;;;;21.50;37.70;;;;;;4976082;28;20380;-51
2023/12/02 07:12:46;;;;;;;;;;;21.60;37.70;;;;;;4975864;28;20522;-50
2023/12/02 07:15:13;;;;;;;;;;;21.50;37.60;;;;;;4976120;28;19930;-54
2023/12/02 07:17:40;;;;;;;;;;;21.50;37.60;;;;;;4976202;28;19926;-49
2023/12/02 07:20:07;;;;;;;;;;;21.60;37.70;;;;;;4975965;28;19930;-53
2023/12/02 07:22:34;;;;;;;;;;;21.60;37.70;;;;;;4975540;28;19926;-48
2023/12/02 07:25:02;;;;;;;;;;;21.50;37.60;;;;;;4975797;28;20387;-51
2023/12/02 07:27:29;;;;;;;;;;;21.60;37.70;;;;;;4975651;28;19926;-48
2023/12/02 07:29:56;;;;;;;;;;;21.60;37.70;;;;;;4957811;28;19989;-51
2023/12/02 07:32:26;;;;;;;;;;;21.60;37.70;;;;;;4972219;28;19937;-48
2023/12/02 07:34:53;;;;;;;;;;;21.60;37.70;;;;;;4972483;28;19972;-52
2023/12/02 07:37:20;;;;;;;;;;;21.60;37.60;;;;;;4956420;28;19977;-51
2023/12/02 07:39:47;;;;;;;;;;;21.60;37.60;;;;;;4974453;28;19938;-49
2023/12/02 07:42:14;;;;;;;;;;;21.60;37.60;;;;;;4971650;28;20265;-51
2023/12/02 07:44:41;;;;;;;;;;;21.60;37.60;;;;;;4981472;28;19961;-48
2023/12/02 07:47:08;;;;;;;;;;;21.60;37.60;;;;;;4983014;28;20291;-52
2023/12/02 07:49:35;;;;;;;;;;;21.60;37.50;;;;;;4981946;28;19930;-50
2023/12/02 07:52:02;;;;;;;;;;;21.70;37.50;;;;;;4978582;28;19934;-51
2023/12/02 07:54:31;;;;;;;;;;;21.70;37.50;;;;;;4974230;28;19926;-51
2023/12/02 07:56:58;;;;;;;;;;;21.70;37.40;;;;;;4979832;28;19932;-53
2023/12/02 07:59:25;;;;;;;;;;;21.70;37.40;;;;;;4956029;28;19930;-47
2023/12/02 08:01:53;;;;;;;;;;;21.70;37.40;;;;;;4974313;28;19933;-52
2023/12/02 08:04:20;;;;;;;;;;;21.70;37.40;;;;;;4972343;28;19926;-53
2023/12/02 08:06:47;;;;;;;;;;;21.70;37.40;;;;;;4975478;28;20308;-51
2023/12/02 08:09:14;;;;;;;;;;;21.70;37.40;;;;;;4970807;28;19930;-48
2023/12/02 08:11:42;;;;;;;;;;;21.70;37.40;;;;;;4974121;28;19930;-47
2023/12/02 08:14:09;;;;;;;;;;;21.70;37.30;;;;;;4972711;28;19994;-50
2023/12/02 08:16:36;;;;;;;;;;;21.80;37.40;;;;;;4973951;28;20288;-53
2023/12/02 08:19:03;;;;;;;;;;;21.80;37.30;;;;;;4974212;28;20013;-48
2023/12/02 08:21:30;;;;;;;;;;;21.80;37.30;;;;;;4972633;28;19969;-49
2023/12/02 08:23:58;;;;;;;;;;;21.90;37.30;;;;;;4973749;28;19933;-48
2023/12/02 08:26:25;;;;;;;;;;;21.80;37.20;;;;;;4975047;28;19938;-52
2023/12/02 08:28:52;;;;;;;;;;;21.90;37.20;;;;;;4972978;28;19998;-50
2023/12/02 08:31:19;;;;;;;;;;;21.90;37.10;;;;;;4974987;28;20320;-54
2023/12/02 08:33:46;;;;;;;;;;;21.90;37.10;;;;;;4971475;28;19980;-49
2023/12/02 08:36:13;;;;;;;;;;;21.90;37.10;;;;;;4970932;28;19971;-53
2023/12/02 08:38:42;;;;;;;;;;;21.90;37.10;;;;;;4974526;28;19933;-53
2023/12/02 08:41:10;;;;;;;;;;;21.90;37.00;;;;;;4956318;28;20340;-51
2023/12/02 08:43:37;;;;;;;;;;;21.90;37.00;;;;;;4974217;28;19934;-50
2023/12/02 08:46:04;;;;;;;;;;;21.90;37.00;;;;;;4972490;28;19927;-53
2023/12/02 08:48:31;;;;;;;;;;;22.00;37.00;;;;;;4974344;28;20388;-52
2023/12/02 08:50:58;;;;;;;;;;;22.00;37.00;;;;;;4973381;28;19926;-53
2023/12/02 08:53:25;;;;;;;;;;;22.00;37.00;;;;;;4974130;28;19929;-53
2023/12/02 08:55:52;;;;;;;;;;;22.00;36.90;;;;;;4972152;28;19930;-51
2023/12/02 08:58:20;;;;;;;;;;;22.00;37.00;;;;;;4974330;28;19937;-51
2023/12/02 09:00:47;;;;;;;;;;;22.00;36.90;;;;;;4970441;28;20762;-52
2023/12/02 09:03:16;;;;;;;;;;;22.00;36.90;;;;;;4973199;28;20384;-50
2023/12/02 09:05:44;;;;;;;;;;;22.00;36.80;;;;;;4973066;28;19997;-54
2023/12/02 09:08:11;;;;;;;;;;;22.00;36.80;;;;;;4973609;28;19973;-53
2023/12/02 09:10:38;;;;;;;;;;;22.10;36.80;;;;;;4970062;28;19948;-53
2023/12/02 09:13:11;;;;;;;;;;;22.10;36.80;;;;;;4973896;28;19981;-53
2023/12/02 09:15:42;;;;;;;;;;;22.20;36.70;;;;;;4974387;28;19927;-53
2023/12/02 09:18:09;;;;;;;;;;;22.20;36.70;;;;;;4973983;28;19930;-52
2023/12/02 09:20:53;;;;;;;;;;;22.20;36.70;;;;;;4972997;28;19926;-51
2023/12/02 09:23:21;;;;;;;;;;;22.20;36.60;;;;;;4967167;28;20003;-55
2023/12/02 09:25:48;;;;;;;;;;;22.20;36.60;;;;;;4969989;28;19926;-55
2023/12/02 09:28:16;;;;;;;;;;;22.20;36.60;;;;;;4969423;28;19926;-53
2023/12/02 09:31:01;;;;;;;;;;;22.20;36.60;;;;;;4969786;28;19981;-58
2023/12/02 09:33:36;;;;;;;;;;;22.20;36.60;;;;;;4972215;28;20376;-54
2023/12/02 09:36:04;;;;;;;;;;;22.20;36.50;;;;;;4972367;28;19961;-55
2023/12/02 09:38:32;;;;;;;;;;;22.20;36.50;;;;;;4973794;28;19977;-54
2023/12/02 09:41:08;;;;;;;;;;;22.30;36.50;;;;;;4973720;28;19933;-54
2023/12/02 09:43:55;;;;;;;;;;;22.30;36.50;;;;;;4956866;28;19926;-59
2023/12/02 09:46:31;;;;;;;;;;;22.30;36.50;;;;;;4959745;28;19926;-53
2023/12/02 09:49:18;;;;;;;;;;;22.30;36.50;;;;;;4974091;28;19930;-58
2023/12/02 09:51:55;;;;;;;;;;;22.20;36.50;;;;;;4974824;28;19926;-61
2023/12/02 09:54:32;;;;;;;;;;;22.20;36.50;;;;;;4977613;28;19930;-56
2023/12/02 09:57:07;;;;;;;;;;;22.40;36.60;;;;;;4977708;28;19927;-55
2023/12/02 09:59:46;;;;;;;;;;;22.40;36.50;;;;;;4977532;28;19926;-57
2023/12/02 10:02:33;;;;;;;;;;;22.40;36.50;;;;;;4976960;28;19930;-55
2023/12/02 10:05:08;;;;;;;;;;;22.30;36.50;;;;;;4977210;28;19926;-56
2023/12/02 10:07:52;;;;;;;;;;;22.40;36.50;;;;;;4976994;28;20014;-56
2023/12/02 10:10:25;;;;;;;;;;;22.40;36.50;;;;;;4977278;28;19934;-52
2023/12/02 10:13:02;;;;;;;;;;;22.40;36.50;;;;;;4976831;28;19926;-62
2023/12/02 10:15:32;;;;;;;;;;;22.40;36.50;;;;;;4957846;29;20444;-57
2023/12/02 10:18:04;;;;;;;;;;;22.30;36.40;;;;;;4957188;28;19926;-52
2023/12/02 10:20:34;;;;;;;;;;;22.40;36.50;;;;;;4957749;29;19927;-47
2023/12/02 10:23:09;;;;;;;;;;;22.40;36.50;;;;;;4957626;28;20288;-55
2023/12/02 10:25:41;;;;;;;;;;;22.40;36.40;;;;;;4957666;29;19933;-54
2023/12/02 10:28:17;;;;;;;;;;;22.30;36.30;;;;;;4957558;28;20381;-52
2023/12/02 10:30:50;;;;;;;;;;;22.40;36.40;;;;;;4957933;29;19930;-54
2023/12/02 10:33:25;;;;;;;;;;;22.40;36.40;;;;;;4971399;28;20372;-54
2023/12/02 10:35:55;;;;;;;;;;;22.40;36.40;;;;;;4973380;28;19981;-53
2023/12/02 10:38:26;;;;;;;;;;;22.30;36.40;;;;;;4973335;28;20021;-49
2023/12/02 10:41:02;;;;;;;;;;;22.30;36.30;;;;;;4968804;28;20154;-54
2023/12/02 10:43:37;;;;;;;;;;;22.40;36.40;;;;;;4957731;28;19926;-55
2023/12/02 10:46:05;;;;;;;;;;;22.40;36.30;;;;;;4975265;28;19941;-51
2023/12/02 10:48:32;;;;;;;;;;;22.40;36.30;;;;;;4976944;28;20299;-49
2023/12/02 10:51:00;;;;;;;;;;;22.40;36.20;;;;;;4977133;28;19958;-50
2023/12/02 10:53:29;;;;;;;;;;;22.50;36.30;;;;;;4976500;28;20376;-53
2023/12/02 10:56:00;;;;;;;;;;;22.40;36.20;;;;;;4971724;28;19938;-53
2023/12/02 10:58:28;;;;;;;;;;;22.50;36.30;;;;;;4959647;28;19969;-48
2023/12/02 11:00:59;;;;;;;;;;;22.50;36.30;;;;;;4976490;28;19930;-48
2023/12/02 11:03:46;;;;;;;;;;;22.50;36.30;;;;;;4958490;28;20307;-50
2023/12/02 11:06:20;;;;;;;;;;;22.40;36.20;;;;;;4976167;28;19969;-48
2023/12/02 11:08:52;;;;;;;;;;;22.50;36.20;;;;;;4976217;28;20428;-51
2023/12/02 11:11:39;;;;;;;;;;;22.50;36.20;;;;;;4976678;28;19930;-51
2023/12/02 11:14:11;;;;;;;;;;;22.50;36.20;;;;;;4975998;28;20343;-52
2023/12/02 11:16:44;;;;;;;;;;;22.50;36.20;;;;;;4975624;28;19981;-49
2023/12/02 11:19:31;;;;;;;;;;;22.50;36.20;;;;;;4976018;28;19926;-48
2023/12/02 11:22:08;;;;;;;;;;;22.50;36.20;;;;;;4976073;28;20383;-49
2023/12/02 11:24:50;;;;;;;;;;;22.50;36.20;;;;;;4975861;28;19926;-47
2023/12/02 11:27:39;;;;;;;;;;;22.50;36.20;;;;;;4975338;28;20344;-47
2023/12/02 11:30:30;;;;;;;;;;;22.50;36.20;;;;;;4974990;28;19937;-48
2023/12/02 11:33:17;;;;;;;;;;;22.50;36.20;;;;;;4975053;28;20292;-48
2023/12/02 11:35:53;;;;;;;;;;;22.50;36.20;;;;;;4975768;28;20013;-51
2023/12/02 11:38:21;;;;;;;;;;;22.50;36.20;;;;;;4975606;28;20414;-48
2023/12/02 11:40:58;;;;;;;;;;;22.50;36.10;;;;;;4974722;28;19980;-48
2023/12/02 11:43:45;;;;;;;;;;;22.50;36.10;;;;;;4975855;28;19953;-48
2023/12/02 11:46:18;;;;;;;;;;;22.60;36.20;;;;;;4974736;28;20044;-48
2023/12/02 11:48:57;;;;;;;;;;;22.60;36.10;;;;;;4975548;28;19926;-49
2023/12/02 11:51:32;;;;;;;;;;;22.60;36.10;;;;;;4975639;28;19926;-48
2023/12/02 11:54:07;;;;;;;;;;;22.50;36.10;;;;;;4975557;28;19926;-49
2023/12/02 11:56:34;;;;;;;;;;;22.50;36.10;;;;;;4975493;28;19977;-50
2023/12/02 11:59:07;;;;;;;;;;;22.60;36.10;;;;;;4975152;28;20008;-49
2023/12/02 12:01:49;;;;;;;;;;;22.50;36.10;;;;;;4975721;28;19929;-49
2023/12/02 12:04:29;;;;;;;;;;;22.50;36.10;;;;;;4975535;28;20012;-48
2023/12/02 12:07:16;;;;;;;;;;;22.50;36.10;;;;;;4975490;28;19997;-48
2023/12/02 12:10:00;;;;;;;;;;;22.50;36.20;;;;;;4974377;28;20020;-48
2023/12/02 12:12:28;;;;;;;;;;;22.50;36.20;;;;;;4975447;28;19926;-48
2023/12/02 12:14:55;;;;;;;;;;;22.50;36.20;;;;;;4975062;28;19926;-53
2023/12/02 12:17:22;;;;;;;;;;;22.50;36.20;;;;;;4975018;28;19926;-52
2023/12/02 12:19:50;;;;;;;;;;;22.50;36.20;;;;;;4974913;28;19926;-49
2023/12/02 12:22:17;;;;;;;;;;;22.40;36.20;;;;;;4975321;28;19926;-55
2023/12/02 12:24:44;;;;;;;;;;;22.40;36.20;;;;;;4974899;28;20013;-53
2023/12/02 12:27:11;;;;;;;;;;;22.40;36.20;;;;;;4975266;28;19931;-56
2023/12/02 12:29:57;;;;;;;;;;;22.50;36.30;;;;;;4974880;28;19926;-51
2023/12/02 12:32:25;;;;;;;;;;;22.40;36.20;;;;;;4974026;28;19930;-53
2023/12/02 12:34:54;;;;;;;;;;;22.40;36.20;;;;;;4974657;28;19926;-49
2023/12/02 12:37:21;;;;;;;;;;;22.40;36.20;;;;;;4989219;28;19929;-51
2023/12/02 12:39:49;;;;;;;;;;;22.40;36.20;;;;;;4994133;28;20346;-54
2023/12/02 12:42:16;;;;;;;;;;;22.40;36.30;;;;;;4994114;28;19973;-50
2023/12/02 12:44:50;;;;;;;;;;;22.40;36.30;;;;;;4994154;28;19925;-54
2023/12/02 12:47:17;;;;;;;;;;;22.40;36.30;;;;;;4993999;28;19953;-53
2023/12/02 12:49:44;;;;;;;;;;;22.40;36.40;;;;;;4994323;28;19925;-51
2023/12/02 12:52:19;;;;;;;;;;;22.30;36.30;;;;;;4993975;28;20438;-48
2023/12/02 12:54:51;;;;;;;;;;;22.30;36.30;;;;;;4990460;28;19973;-53
2023/12/02 12:57:25;;;;;;;;;;;22.30;36.90;;;;;;4974485;28;19926;-49
2023/12/02 12:59:55;;;;;;;;;;;22.40;36.40;;;;;;4974381;28;19926;-47
2023/12/02 13:02:35;;;;;;;;;;;22.30;36.40;;;;;;4974497;28;19929;-51
2023/12/02 13:05:07;;;;;;;;;;;22.30;36.30;;;;;;4974402;28;19981;-54
2023/12/02 13:07:54;;;;;;;;;;;22.30;36.30;;;;;;4974744;28;19926;-47
2023/12/02 13:10:21;;;;;;;;;;;22.30;36.40;;;;;;4969232;28;19973;-50
2023/12/02 13:12:50;;;;;;;;;;;22.30;36.30;;;;;;4972692;28;20013;-55
2023/12/02 13:15:20;;;;;;;;;;;22.30;36.30;;;;;;4968638;28;20021;-51
2023/12/02 13:17:50;;;;;;;;;;;22.20;36.30;;;;;;4974505;28;20343;-49
2023/12/02 13:20:18;;;;;;;;;;;22.20;36.30;;;;;;4974266;28;19926;-48
2023/12/02 13:22:46;;;;;;;;;;;22.20;36.30;;;;;;4974373;28;19973;-52
2023/12/02 13:25:16;;;;;;;;;;;22.20;36.20;;;;;;4974220;28;20396;-48
2023/12/02 13:27:57;;;;;;;;;;;22.20;36.30;;;;;;4977438;28;19961;-49
2023/12/02 13:30:24;;;;;;;;;;;22.20;36.20;;;;;;4977789;28;19926;-53
2023/12/02 13:32:52;;;;;;;;;;;22.20;36.20;;;;;;4976893;28;19926;-48
2023/12/02 13:35:27;;;;;;;;;;;22.20;36.20;;;;;;4978004;28;19977;-48
2023/12/02 13:38:13;;;;;;;;;;;22.20;36.20;;;;;;4977976;28;19973;-52
2023/12/02 13:40:49;;;;;;;;;;;22.20;36.70;;;;;;4977723;28;20004;-48
2023/12/02 13:43:18;;;;;;;;;;;22.20;36.20;;;;;;4968716;28;19977;-48
2023/12/02 13:45:52;;;;;;;;;;;22.20;36.20;;;;;;4978167;28;19926;-48
2023/12/02 13:48:22;;;;;;;;;;;22.20;36.20;;;;;;4977840;28;19930;-50
2023/12/02 13:50:58;;;;;;;;;;;22.10;36.10;;;;;;4978095;28;20017;-48
2023/12/02 13:53:36;;;;;;;;;;;22.10;36.10;;;;;;4978073;28;19926;-48
2023/12/02 13:56:19;;;;;;;;;;;22.10;36.10;;;;;;4977414;28;19973;-48
2023/12/02 13:59:00;;;;;;;;;;;22.10;36.10;;;;;;4977583;28;19926;-55
2023/12/02 14:01:32;;;;;;;;;;;22.10;36.10;;;;;;4977969;28;20024;-55
2023/12/02 14:04:11;;;;;;;;;;;22.10;36.10;;;;;;4977767;28;20080;-53
2023/12/02 14:06:45;;;;;;;;;;;22.10;36.10;;;;;;4977830;28;19926;-55
2023/12/02 14:09:17;;;;;;;;;;;22.00;36.10;;;;;;4977666;28;19926;-54
2023/12/02 14:11:55;;;;;;;;;;;22.10;36.30;;;;;;4977518;28;19973;-52
2023/12/02 14:14:42;;;;;;;;;;;22.10;36.30;;;;;;4977334;28;19926;-50
2023/12/02 14:17:29;;;;;;;;;;;22.10;36.30;;;;;;4977400;28;19926;-53
2023/12/02 14:20:06;;;;;;;;;;;22.10;36.40;;;;;;4989573;28;19926;-52
2023/12/02 14:22:48;;;;;;;;;;;22.10;36.40;;;;;;4977194;28;19926;-52
2023/12/02 14:25:35;;;;;;;;;;;22.10;36.50;;;;;;4977510;28;19984;-53
2023/12/02 14:28:21;;;;;;;;;;;22.00;36.50;;;;;;4981785;28;19926;-49
2023/12/02 14:31:05;;;;;;;;;;;22.00;36.50;;;;;;4976959;28;19973;-55